Time;durP1;ratioP1;P1;durP2;ratioP2;P2;SDS_P1;SDS_P2;PMS_P1;PMS_P2;Temp;Humidity;BMP_temperature;BMP_pressure;BME280_temperature;BME280_humidity;BME280_pressure;Samples;Min_cycle;Max_cycle;Signal;HPM_P1;HPM_P2
2023/08/22 00:00:49;;;;;;;9.52;6.22;;;;;;;17.32;100.00;101920.97;5091102;28;20056;-48
2023/08/22 00:03:14;;;;;;;9.90;6.25;;;;;;;17.17;100.00;101895.00;5091473;28;20039;-46
2023/08/22 00:05:40;;;;;;;10.63;7.25;;;;;;;17.64;100.00;101967.50;5090388;28;20340;-48
2023/08/22 00:08:06;;;;;;;10.27;6.38;;;;;;;17.21;100.00;101898.41;5091944;28;20453;-48
2023/08/22 00:10:32;;;;;;;11.27;6.30;;;;;;;17.60;100.00;101973.03;5091226;28;20057;-46
2023/08/22 00:12:57;;;;;;;11.40;6.82;;;;;;;17.13;100.00;101888.06;5090420;28;20063;-45
2023/08/22 00:15:23;;;;;;;11.23;6.90;;;;;;;17.55;100.00;101959.91;5090318;28;20594;-48
2023/08/22 00:17:48;;;;;;;9.77;7.13;;;;;;;17.53;100.00;101953.75;5091287;28;20036;-46
2023/08/22 00:20:14;;;;;;;9.10;7.15;;;;;;;17.11;100.00;101883.75;5090088;28;20067;-45
2023/08/22 00:22:39;;;;;;;14.63;7.50;;;;;;;17.14;100.00;101886.28;5090046;28;20024;-47
2023/08/22 00:25:05;;;;;;;11.07;7.35;;;;;;;17.09;100.00;101872.31;5091351;28;20078;-50
2023/08/22 00:27:31;;;;;;;12.68;7.63;;;;;;;17.46;100.00;101949.63;5091269;28;20111;-45
2023/08/22 00:29:57;;;;;;;10.63;7.72;;;;;;;17.52;100.00;101954.69;5090252;28;20226;-47
2023/08/22 00:32:23;;;;;;;9.23;7.70;;;;;;;17.50;100.00;101945.91;5091637;28;20116;-47
2023/08/22 00:34:48;;;;;;;9.30;6.53;;;;;;;17.43;100.00;101939.97;5091469;28;20505;-47
2023/08/22 00:37:13;;;;;;;13.32;7.93;;;;;;;17.41;100.00;101933.88;5091302;28;20039;-46
2023/08/22 00:39:39;;;;;;;10.35;7.40;;;;;;;17.34;100.00;101929.72;5089911;28;20040;-51
2023/08/22 00:42:04;;;;;;;13.02;7.78;;;;;;;17.28;100.00;101937.97;5091170;28;20500;-50
2023/08/22 00:44:30;;;;;;;12.30;7.53;;;;;;;16.89;100.00;101883.81;5089682;28;20055;-49
2023/08/22 00:46:55;;;;;;;13.25;8.45;;;;;;;17.08;100.00;101919.34;5089882;28;20040;-50
2023/08/22 00:49:21;;;;;;;13.85;8.00;;;;;;;17.09;100.00;101937.03;5090147;28;20040;-49
2023/08/22 00:51:46;;;;;;;13.18;7.90;;;;;;;16.68;100.00;101866.94;5089868;28;20077;-46
2023/08/22 00:54:12;;;;;;;9.60;7.35;;;;;;;16.68;100.00;101855.44;5091128;28;20046;-47
2023/08/22 00:56:37;;;;;;;10.85;7.50;;;;;;;17.09;100.00;101923.72;5091224;28;20428;-47
2023/08/22 00:59:03;;;;;;;10.45;7.82;;;;;;;16.85;100.00;101871.56;5091599;28;20052;-47
2023/08/22 01:01:29;;;;;;;13.23;7.57;;;;;;;16.63;100.00;101838.84;5090709;28;20164;-48
2023/08/22 01:03:55;;;;;;;13.40;7.70;;;;;;;17.02;100.00;101911.59;5089971;28;20088;-48
2023/08/22 01:06:36;;;;;;;17.17;8.38;;;;;;;17.01;100.00;101928.50;5090927;28;20032;-49
2023/08/22 01:09:05;;;;;;;13.40;8.30;;;;;;;16.52;100.00;101841.03;5089925;28;20036;-46
2023/08/22 01:11:35;;;;;;;11.00;8.07;;;;;;;17.00;100.00;101917.91;5091013;28;20043;-46
2023/08/22 01:14:06;;;;;;;16.65;7.60;;;;;;;16.71;100.00;101874.81;5089412;28;20081;-48
2023/08/22 01:16:31;;;;;;;12.48;8.30;;;;;;;16.98;100.00;101919.78;5089163;28;20307;-50
2023/08/22 01:19:01;;;;;;;10.23;6.90;;;;;;;16.92;100.00;101922.69;5088441;28;20029;-48
2023/08/22 01:21:26;;;;;;;13.50;8.18;;;;;;;16.75;100.00;101913.59;5089699;28;20036;-47
2023/08/22 01:23:52;;;;;;;8.38;7.18;;;;;;;16.83;100.00;101929.28;5091652;28;20039;-46
2023/08/22 01:26:17;;;;;;;11.88;7.55;;;;;;;16.77;100.00;101934.84;5094472;28;20120;-48
2023/08/22 01:28:47;;;;;;;11.65;6.88;;;;;;;16.77;100.00;101927.72;5094538;28;20035;-48
2023/08/22 01:31:22;;;;;;;10.50;7.43;;;;;;;16.75;100.00;101924.25;5093107;28;20064;-45
2023/08/22 01:34:02;;;;;;;12.57;7.65;;;;;;;16.52;100.00;101897.69;5094441;28;20350;-49
2023/08/22 01:36:28;;;;;;;10.52;7.28;;;;;;;16.34;100.00;101871.88;5091668;28;20032;-53
2023/08/22 01:38:54;;;;;;;11.70;7.07;;;;;;;16.67;100.00;101925.50;5075599;28;20039;-46
2023/08/22 01:41:21;;;;;;;9.80;7.43;;;;;;;16.63;100.00;101919.44;5094480;28;20072;-47
2023/08/22 01:43:49;;;;;;;11.13;7.72;;;;;;;16.57;100.00;101916.16;5092516;28;20028;-47
2023/08/22 01:46:14;;;;;;;10.50;7.00;;;;;;;16.51;100.00;101905.75;5093867;28;20036;-48
2023/08/22 01:48:40;;;;;;;12.43;7.47;;;;;;;16.27;100.00;101867.72;5093769;28;20449;-49
2023/08/22 01:51:05;;;;;;;10.55;7.18;;;;;;;16.69;100.00;101926.31;5093897;28;20254;-47
2023/08/22 01:53:30;;;;;;;14.32;8.63;;;;;;;16.32;100.00;101866.59;5092771;28;20127;-47
2023/08/22 01:55:59;;;;;;;12.45;8.05;;;;;;;16.67;100.00;101928.16;5092676;28;20125;-48
2023/08/22 01:58:25;;;;;;;11.60;7.15;;;;;;;16.34;100.00;101869.22;5093879;28;20374;-48
2023/08/22 02:00:50;;;;;;;11.18;7.28;;;;;;;16.62;100.00;101928.34;5093247;28;20056;-48
2023/08/22 02:03:15;;;;;;;11.25;7.22;;;;;;;16.58;100.00;101918.75;5092608;28;20028;-50
2023/08/22 02:05:41;;;;;;;13.23;7.65;;;;;;;16.12;100.00;101839.97;5093503;28;20111;-50
2023/08/22 02:08:06;;;;;;;8.95;6.90;;;;;;;16.53;100.00;101918.03;5093765;28;20040;-47
2023/08/22 02:10:31;;;;;;;10.85;7.13;;;;;;;16.48;100.00;101920.03;5092679;28;20044;-48
2023/08/22 02:12:57;;;;;;;12.18;7.55;;;;;;;16.48;100.00;101924.47;5093636;28;20162;-47
2023/08/22 02:15:22;;;;;;;8.00;6.55;;;;;;;16.42;100.00;101908.75;5092424;28;20047;-46
2023/08/22 02:17:48;;;;;;;9.30;6.68;;;;;;;15.93;100.00;101831.00;5094207;28;20119;-50
2023/08/22 02:20:14;;;;;;;11.00;7.22;;;;;;;15.80;100.00;101810.28;5075366;28;20035;-52
2023/08/22 02:22:40;;;;;;;10.40;7.53;;;;;;;16.12;100.00;101869.19;5092181;28;20032;-51
2023/08/22 02:25:09;;;;;;;10.80;6.85;;;;;;;16.27;100.00;101904.91;5093517;28;20028;-51
2023/08/22 02:27:36;;;;;;;11.32;7.63;;;;;;;16.22;100.00;101898.94;5092348;28;20510;-49
2023/08/22 02:30:08;;;;;;;10.65;6.93;;;;;;;16.21;100.00;101898.06;5092219;28;20040;-49
2023/08/22 02:32:33;;;;;;;10.50;7.13;;;;;;;15.75;100.00;101821.09;5093315;28;20032;-49
2023/08/22 02:34:59;;;;;;;8.77;6.68;;;;;;;16.19;100.00;101899.03;5093055;28;20468;-49
2023/08/22 02:37:24;;;;;;;10.55;7.22;;;;;;;15.74;100.00;101825.53;5093513;28;20036;-52
2023/08/22 02:39:49;;;;;;;8.52;7.05;;;;;;;16.12;100.00;101889.56;5092988;28;20032;-47
2023/08/22 02:42:15;;;;;;;10.35;6.40;;;;;;;15.77;100.00;101820.09;5093108;28;20124;-51
2023/08/22 02:44:40;;;;;;;8.55;6.80;;;;;;;15.95;100.00;101846.88;5091771;28;20097;-47
2023/08/22 02:47:05;;;;;;;10.20;7.35;;;;;;;16.16;100.00;101888.53;5092956;28;20039;-50
2023/08/22 02:49:31;;;;;;;10.00;6.85;;;;;;;15.97;100.00;101858.28;5093009;28;20135;-52
2023/08/22 02:51:56;;;;;;;9.77;6.25;;;;;;;15.71;100.00;101825.66;5092603;28;20036;-50
2023/08/22 02:54:21;;;;;;;6.85;5.35;;;;;;;16.09;100.00;101895.00;5093181;28;20036;-51
2023/08/22 02:56:47;;;;;;;7.18;6.35;;;;;;;15.64;100.00;101823.28;5092995;28;20036;-49
2023/08/22 02:59:12;;;;;;;10.65;6.20;;;;;;;15.86;100.00;101869.31;5092599;28;20044;-47
2023/08/22 03:01:37;;;;;;;12.65;6.68;;;;;;;16.01;100.00;101886.47;5091383;28;20056;-50
2023/08/22 03:04:03;;;;;;;8.32;6.55;;;;;;;15.43;100.00;101795.75;5092288;28;20043;-47
2023/08/22 03:06:28;;;;;;;8.95;6.43;;;;;;;15.67;100.00;101841.75;5092574;28;20373;-50
2023/08/22 03:08:54;;;;;;;11.90;6.00;;;;;;;15.82;100.00;101865.03;5092483;28;20067;-47
2023/08/22 03:11:19;;;;;;;9.27;5.88;;;;;;;15.81;100.00;101875.75;5092611;28;20058;-47
2023/08/22 03:13:44;;;;;;;7.40;6.13;;;;;;;15.83;100.00;101887.16;5092529;28;20040;-50
2023/08/22 03:16:10;;;;;;;7.10;5.55;;;;;;;15.69;100.00;101862.00;5091429;28;20028;-49
2023/08/22 03:18:35;;;;;;;6.70;5.60;;;;;;;15.75;100.00;101871.53;5089874;28;20036;-48
2023/08/22 03:21:00;;;;;;;6.90;5.47;;;;;;;15.30;100.00;101806.84;5090952;28;20086;-49
2023/08/22 03:23:26;;;;;;;7.43;5.68;;;;;;;15.30;100.00;101805.06;5092599;28;20028;-49
2023/08/22 03:26:04;;;;;;;12.32;6.68;;;;;;;15.38;100.00;101823.34;5092413;28;20491;-47
2023/08/22 03:28:29;;;;;;;9.68;6.28;;;;;;;15.50;100.00;101845.00;5092311;28;20305;-47
2023/08/22 03:31:02;;;;;;;6.53;5.70;;;;;;;15.73;100.00;101882.19;5092028;28;20047;-47
2023/08/22 03:33:28;;;;;;;10.75;6.18;;;;;;;15.29;100.00;101810.44;5090770;28;20067;-48
2023/08/22 03:35:54;;;;;;;13.52;6.40;;;;;;;15.70;100.00;101886.78;5089805;28;20056;-45
2023/08/22 03:38:20;;;;;;;9.13;6.18;;;;;;;15.28;100.00;101798.06;5090969;28;20397;-49
2023/08/22 03:40:46;;;;;;;6.85;5.50;;;;;;;15.54;100.00;101846.66;5091955;28;20118;-51
2023/08/22 03:43:12;;;;;;;8.73;6.30;;;;;;;15.55;100.00;101852.81;5092408;28;20059;-48
2023/08/22 03:45:37;;;;;;;9.32;5.72;;;;;;;15.13;100.00;101781.81;5091358;28;20424;-53
2023/08/22 03:48:04;;;;;;;8.38;5.90;;;;;;;15.13;100.00;101772.97;5091896;28;20458;-48
2023/08/22 03:50:32;;;;;;;7.78;6.18;;;;;;;15.58;100.00;101850.94;5092438;28;20032;-48
2023/08/22 03:52:57;;;;;;;8.55;5.80;;;;;;;15.61;100.00;101857.91;5091184;28;20093;-48
2023/08/22 03:55:22;;;;;;;9.93;6.55;;;;;;;15.58;100.00;101866.84;5092009;28;20044;-48
2023/08/22 03:57:48;;;;;;;8.18;5.90;;;;;;;15.58;100.00;101853.59;5091556;28;20040;-47
2023/08/22 04:00:14;;;;;;;9.30;6.28;;;;;;;15.30;100.00;101809.50;5090506;28;20071;-48
2023/08/22 04:02:39;;;;;;;12.70;6.63;;;;;;;15.56;100.00;101844.78;5091233;28;20047;-50
2023/08/22 04:05:05;;;;;;;10.65;6.22;;;;;;;14.79;100.00;101719.44;5091941;28;20063;-48
2023/08/22 04:07:30;;;;;;;10.30;6.20;;;;;;;15.60;100.00;101857.03;5091477;28;20032;-47
2023/08/22 04:09:55;;;;;;;12.27;6.82;;;;;;;15.58;100.00;101861.53;5089414;28;20047;-52
2023/08/22 04:12:21;;;;;;;10.15;6.68;;;;;;;15.18;100.00;101785.16;5091812;28;20071;-47
2023/08/22 04:14:46;;;;;;;9.68;6.53;;;;;;;15.60;100.00;101872.09;5091678;28;20138;-50
2023/08/22 04:17:11;;;;;;;10.25;6.57;;;;;;;15.44;100.00;101839.91;5091539;28;20173;-47
2023/08/22 04:19:38;;;;;;;12.38;6.72;;;;;;;15.21;100.00;101806.25;5090474;28;20127;-49
2023/08/22 04:22:03;;;;;;;8.63;6.55;;;;;;;15.56;100.00;101870.47;5091705;28;20088;-50
2023/08/22 04:24:29;;;;;;;9.00;6.03;;;;;;;15.08;100.00;101793.50;5090189;28;20115;-47
2023/08/22 04:26:54;;;;;;;10.02;6.07;;;;;;;15.10;100.00;101811.09;5090408;28;20109;-49
2023/08/22 04:29:20;;;;;;;8.85;6.75;;;;;;;15.46;100.00;101869.03;5091596;28;20055;-47
2023/08/22 04:31:45;;;;;;;11.35;7.10;;;;;;;15.50;100.00;101873.38;5091516;28;20024;-46
2023/08/22 04:34:10;;;;;;;12.25;7.47;;;;;;;15.45;100.00;101857.56;5091453;28;20040;-49
2023/08/22 04:36:36;;;;;;;11.05;7.68;;;;;;;15.33;100.00;101831.47;5091569;28;20036;-51
2023/08/22 04:39:01;;;;;;;8.82;6.85;;;;;;;15.56;100.00;101867.81;5091613;28;20102;-49
2023/08/22 04:41:26;;;;;;;13.82;7.10;;;;;;;15.09;100.00;101790.78;5090359;28;20055;-52
2023/08/22 04:43:52;;;;;;;10.70;7.80;;;;;;;15.59;100.00;101865.03;5090695;28;20044;-48
2023/08/22 04:46:17;;;;;;;11.23;7.70;;;;;;;15.63;100.00;101861.38;5089897;28;20044;-47
2023/08/22 04:48:42;;;;;;;11.35;7.25;;;;;;;15.29;100.00;101790.09;5090012;28;20028;-46
2023/08/22 04:51:08;;;;;;;10.35;7.55;;;;;;;15.68;100.00;101854.09;5091194;28;20028;-47
2023/08/22 04:53:33;;;;;;;13.80;7.47;;;;;;;15.69;100.00;101850.50;5091201;28;20036;-51
2023/08/22 04:55:58;;;;;;;13.93;8.32;;;;;;;15.33;100.00;101781.06;5091437;28;20085;-47
2023/08/22 04:58:24;;;;;;;10.35;7.43;;;;;;;15.29;100.00;101775.94;5092898;28;20037;-50
2023/08/22 05:00:49;;;;;;;10.52;6.78;;;;;;;15.36;100.00;101777.44;5094854;28;20032;-50
2023/08/22 05:03:15;;;;;;;11.13;7.03;;;;;;;15.73;100.00;101847.69;5094254;28;20480;-50
2023/08/22 05:05:40;;;;;;;10.35;7.35;;;;;;;15.75;100.00;101842.31;5095048;28;20115;-46
2023/08/22 05:08:06;;;;;;;15.10;7.80;;;;;;;15.78;100.00;101847.53;5094824;28;20031;-47
2023/08/22 05:10:31;;;;;;;14.00;8.13;;;;;;;15.78;100.00;101831.59;5094964;28;20055;-47
2023/08/22 05:12:56;;;;;;;12.52;7.03;;;;;;;15.57;100.00;101790.81;5093727;28;20502;-50
2023/08/22 05:15:22;;;;;;;15.60;7.78;;;;;;;16.01;100.00;101865.22;5094684;28;20391;-52
2023/08/22 05:17:47;;;;;;;12.25;7.53;;;;;;;16.01;100.00;101852.81;5093085;28;20036;-51
2023/08/22 05:20:13;;;;;;;13.98;7.75;;;;;;;15.97;100.00;101842.34;5093612;28;20610;-47
2023/08/22 05:22:38;;;;;;;15.00;7.75;;;;;;;16.03;100.00;101843.00;5094619;28;20035;-53
2023/08/22 05:25:05;;;;;;;13.15;8.07;;;;;;;16.21;100.00;101863.53;5075777;28;20118;-52
2023/08/22 05:27:30;;;;;;;10.95;7.60;;;;;;;16.34;100.00;101874.53;5094434;28;20036;-46
2023/08/22 05:29:55;;;;;;;12.20;7.60;;;;;;;16.43;100.00;101865.34;5094417;28;20142;-52
2023/08/22 05:32:21;;;;;;;11.90;7.65;;;;;;;16.05;100.00;101795.97;5094746;28;20040;-48
2023/08/22 05:34:46;;;;;;;11.25;8.48;;;;;;;16.22;100.00;101822.75;5093775;28;20032;-49
2023/08/22 05:37:11;;;;;;;13.82;9.23;;;;;;;16.12;100.00;101785.97;5094499;28;20044;-50
2023/08/22 05:39:37;;;;;;;10.07;7.32;;;;;;;16.38;100.00;101820.31;5093187;28;20119;-48
2023/08/22 05:42:03;;;;;;;11.82;7.63;;;;;;;16.73;100.00;101880.03;5094148;28;20187;-47
2023/08/22 05:44:31;;;;;;;12.88;7.88;;;;;;;16.76;100.00;101872.81;5094243;28;20036;-49
2023/08/22 05:46:56;;;;;;;13.50;8.15;;;;;;;16.87;100.00;101878.53;5094443;28;20096;-48
2023/08/22 05:49:22;;;;;;;14.13;9.05;;;;;;;16.98;100.00;101878.09;5092875;28;20115;-48
2023/08/22 05:51:47;;;;;;;15.05;10.73;;;;;;;16.72;100.00;101812.72;5094222;28;20028;-47
2023/08/22 05:54:12;;;;;;;13.57;9.38;;;;;;;17.32;100.00;101880.16;5094484;28;20039;-47
2023/08/22 05:56:38;;;;;;;20.25;10.25;;;;;;;17.09;100.00;101813.78;5091675;28;20040;-51
2023/08/22 05:59:03;;;;;;;12.10;8.68;;;;;;;17.56;100.00;101872.94;5094394;28;20046;-51
2023/08/22 06:01:29;;;;;;;12.60;8.60;;;;;;;17.81;100.00;101887.72;5092079;28;20078;-47
2023/08/22 06:03:54;;;;;;;13.35;9.10;;;;;;;18.00;100.00;101877.09;5092476;28;20020;-54
2023/08/22 06:06:20;;;;;;;12.50;8.23;;;;;;;17.90;100.00;101828.69;5094091;28;20085;-49
2023/08/22 06:08:45;;;;;;;13.98;9.27;;;;;;;18.31;100.00;101876.47;5093432;28;20478;-46
2023/08/22 06:11:10;;;;;;;14.57;9.00;;;;;;;18.01;100.00;101822.00;5092403;28;20046;-47
2023/08/22 06:13:36;;;;;;;12.95;8.77;;;;;;;18.34;100.00;101876.34;5092265;28;20036;-47
2023/08/22 06:16:01;;;;;;;14.48;9.00;;;;;;;18.01;100.00;101824.69;5093497;28;20403;-47
2023/08/22 06:18:26;;;;;;;15.95;10.05;;;;;;;18.25;100.00;101882.97;5092389;28;20044;-46
2023/08/22 06:20:52;;;;;;;14.23;9.00;;;;;;;18.21;100.00;101889.41;5093262;28;20043;-46
2023/08/22 06:23:17;;;;;;;11.38;9.25;;;;;;;18.10;100.00;101872.16;5093463;28;20154;-46
2023/08/22 06:25:42;;;;;;;15.40;9.35;;;;;;;17.62;100.00;101814.94;5093363;28;20036;-49
2023/08/22 06:28:08;;;;;;;14.13;9.43;;;;;;;17.59;100.00;101807.09;5091742;28;20047;-49
2023/08/22 06:30:33;;;;;;;15.82;10.52;;;;;;;18.08;100.00;101880.25;5092205;28;20027;-45
2023/08/22 06:32:58;;;;;;;14.38;10.10;;;;;;;18.18;100.00;101872.69;5093485;28;20030;-51
2023/08/22 06:35:25;;;;;;;15.45;10.02;;;;;;;17.82;100.00;101785.59;5093234;28;20115;-47
2023/08/22 06:37:50;;;;;;;15.52;9.88;;;;;;;18.08;100.00;101802.97;5091802;28;20032;-51
2023/08/22 06:40:16;;;;;;;17.35;11.07;;;;;;;18.70;100.00;101884.38;5092860;28;20047;-48
2023/08/22 06:42:41;;;;;;;13.93;10.13;;;;;;;18.91;100.00;101878.00;5093221;28;20270;-46
2023/08/22 06:45:07;;;;;;;16.02;9.90;;;;;;;18.68;100.00;101801.78;5092752;28;20036;-48
2023/08/22 06:47:32;;;;;;;16.90;10.18;;;;;;;19.29;100.00;101881.34;5092231;28;20040;-47
2023/08/22 06:49:58;;;;;;;18.40;12.65;;;;;;;19.53;100.00;101896.97;5093263;28;20032;-47
2023/08/22 06:52:23;;;;;;;15.52;11.10;;;;;;;19.28;100.00;101831.56;5074616;28;20028;-46
2023/08/22 06:54:48;;;;;;;16.15;10.70;;;;;;;19.38;100.00;101831.00;5093069;28;20028;-47
2023/08/22 06:57:14;;;;;;;16.02;10.88;;;;;;;19.43;100.00;101845.00;5092654;28;20040;-52
2023/08/22 06:59:39;;;;;;;14.23;11.10;;;;;;;19.82;100.00;101887.41;5091086;28;20123;-48
2023/08/22 07:02:04;;;;;;;16.33;11.43;;;;;;;19.49;100.00;101828.66;5092029;28;20063;-50
2023/08/22 07:04:31;;;;;;;14.70;11.25;;;;;;;19.52;100.00;101836.50;5092498;28;20036;-50
2023/08/22 07:06:56;;;;;;;16.15;11.25;;;;;;;19.83;100.00;101873.09;5092379;28;20039;-50
2023/08/22 07:09:22;;;;;;;17.55;10.60;;;;;;;20.19;100.00;101907.63;5091272;28;20430;-48
2023/08/22 07:11:47;;;;;;;14.95;10.52;;;;;;;20.36;100.00;101920.97;5091060;28;20054;-52
2023/08/22 07:14:13;;;;;;;18.30;11.05;;;;;;;20.55;100.00;101918.97;5092531;28;20364;-48
2023/08/22 07:16:38;;;;;;;16.52;10.32;;;;;;;20.79;100.00;101924.72;5092432;28;20043;-47
2023/08/22 07:19:04;;;;;;;15.05;10.30;;;;;;;20.47;100.00;101864.19;5091494;28;20043;-48
2023/08/22 07:21:29;;;;;;;17.42;9.48;;;;;;;20.77;100.00;101927.50;5091955;28;20036;-46
2023/08/22 07:23:55;;;;;;;12.20;10.35;;;;;;;20.68;100.00;101932.50;5092101;28;20036;-50
2023/08/22 07:26:20;;;;;;;15.45;10.13;;;;;;;20.30;100.00;101880.31;5092190;28;20058;-48
2023/08/22 07:28:46;;;;;;;14.68;10.38;;;;;;;20.56;100.00;101942.09;5092542;28;20032;-47
2023/08/22 07:31:11;;;;;;;14.95;10.30;;;;;;;20.47;100.00;101941.75;5092429;28;20058;-53
2023/08/22 07:33:36;;;;;;;17.83;10.00;;;;;;;20.37;100.00;101940.53;5091126;28;20039;-46
2023/08/22 07:36:03;;;;;;;14.15;10.05;;;;;;;20.17;100.00;101872.94;5092156;28;20101;-48
2023/08/22 07:38:29;;;;;;;11.13;9.40;;;;;;;20.84;100.00;101933.34;5092275;28;20081;-48
2023/08/22 07:40:54;;;;;;;13.00;8.93;;;;;;;21.30;100.00;101945.81;5092057;28;20127;-52
2023/08/22 07:43:19;;;;;;;15.65;11.02;;;;;;;21.71;100.00;101935.28;5090243;28;20448;-49
2023/08/22 07:45:45;;;;;;;11.93;7.00;;;;;;;21.71;100.00;101872.75;5091812;28;20047;-46
2023/08/22 07:48:10;;;;;;;10.00;7.70;;;;;;;22.10;100.00;101896.22;5091066;28;20426;-48
2023/08/22 07:50:36;;;;;;;13.90;7.75;;;;;;;22.33;100.00;101904.50;5089164;28;20388;-48
2023/08/22 07:53:02;;;;;;;10.82;7.40;;;;;;;22.67;100.00;101964.09;5091812;28;20055;-52
2023/08/22 07:55:28;;;;;;;12.38;7.22;;;;;;;22.66;100.00;101965.91;5091761;28;20131;-51
2023/08/22 07:57:54;;;;;;;12.18;7.40;;;;;;;22.83;100.00;101975.53;5091628;28;20035;-48
2023/08/22 08:00:19;;;;;;;16.60;6.78;;;;;;;22.63;100.00;101917.75;5091640;28;20055;-49
2023/08/22 08:02:45;;;;;;;13.88;6.63;;;;;;;22.87;100.00;101952.91;5092068;28;20056;-50
2023/08/22 08:05:12;;;;;;;8.40;5.50;;;;;;;22.99;100.00;101962.81;5090525;28;20040;-56
2023/08/22 08:07:38;;;;;;;11.50;6.97;;;;;;;23.16;100.00;101943.75;5076245;28;20032;-49
2023/08/22 08:10:04;;;;;;;8.65;6.47;;;;;;;23.21;100.00;101911.19;5087640;28;20062;-46
2023/08/22 08:12:29;;;;;;;10.75;6.60;;;;;;;23.26;100.00;101885.72;5085918;28;20028;-47
2023/08/22 08:14:54;;;;;;;11.88;6.38;;;;;;;23.72;100.00;101958.72;5088225;28;20402;-47
2023/08/22 08:17:20;;;;;;;11.15;6.30;;;;;;;23.48;100.00;101955.88;5091803;28;20101;-47
2023/08/22 08:19:45;;;;;;;11.35;6.97;;;;;;;23.05;100.00;101908.72;5087847;28;20085;-49
2023/08/22 08:22:12;;;;;;;12.00;5.65;;;;;;;23.18;100.00;101943.63;5089668;28;20135;-50
2023/08/22 08:24:38;;;;;;;13.40;5.90;;;;;;;23.32;100.00;101952.47;5088881;28;20036;-47
2023/08/22 08:27:03;;;;;;;11.27;5.97;;;;;;;23.55;100.00;101948.28;5089665;28;20040;-49
2023/08/22 08:29:29;;;;;;;8.73;4.18;;;;;;;23.41;100.00;101908.03;5087574;28;20078;-51
2023/08/22 08:31:56;;;;;;;9.18;5.30;;;;;;;23.55;100.00;101931.28;5092572;28;20036;-48
2023/08/22 08:34:22;;;;;;;11.48;5.30;;;;;;;23.90;100.00;101983.47;5093127;28;20072;-50
2023/08/22 08:36:48;;;;;;;10.95;4.75;;;;;;;23.86;100.00;101972.03;5093691;28;20040;-50
2023/08/22 08:39:14;;;;;;;10.25;4.50;;;;;;;23.72;100.00;101969.47;5091816;28;20036;-52
2023/08/22 08:41:43;;;;;;;7.15;3.78;;;;;;;23.25;100.00;101916.28;5095489;28;20398;-52
2023/08/22 08:44:10;;;;;;;6.50;3.85;;;;;;;23.49;100.00;101940.63;5095802;28;20028;-47
2023/08/22 08:46:36;;;;;;;5.20;2.97;;;;;;;23.78;100.00;101960.09;5094621;28;20032;-50
2023/08/22 08:49:02;;;;;;;6.93;2.85;;;;;;;23.68;100.00;101977.84;5080025;28;20032;-46
2023/08/22 08:51:29;;;;;;;8.30;2.72;;;;;;;23.49;100.00;101924.50;5075001;28;20114;-50
2023/08/22 08:53:54;;;;;;;6.38;2.17;;;;;;;23.40;100.00;101919.75;5084992;28;20380;-51
2023/08/22 08:56:20;;;;;;;6.20;2.75;;;;;;;23.72;100.00;101964.09;5093257;28;20086;-47
2023/08/22 08:58:45;;;;;;;5.43;1.95;;;;;;;23.95;100.00;101979.47;5087997;28;20047;-50
2023/08/22 09:01:11;;;;;;;4.45;1.98;;;;;;;24.09;100.00;101997.31;5074651;28;20036;-47
2023/08/22 09:03:36;;;;;;;4.47;1.65;;;;;;;24.04;100.00;101992.28;5087764;28;20093;-48
2023/08/22 09:06:02;;;;;;;4.28;2.13;;;;;;;23.88;100.00;101993.44;5094226;28;20032;-50
2023/08/22 09:08:27;;;;;;;8.55;2.25;;;;;;;23.83;100.00;102000.97;5095406;28;20288;-46
2023/08/22 09:10:53;;;;;;;5.90;1.88;;;;;;;23.76;100.00;101984.41;5090951;28;20066;-49
2023/08/22 09:13:26;;;;;;;8.13;2.25;;;;;;;23.73;100.00;102000.72;5095246;28;20044;-48
2023/08/22 09:15:57;;;;;;;9.80;2.58;;;;;;;23.67;100.00;102000.31;5093768;28;20056;-45
2023/08/22 09:18:23;;;;;;;8.57;2.13;;;;;;;23.71;100.00;101991.94;5094064;28;20119;-48
2023/08/22 09:20:48;;;;;;;7.05;2.70;;;;;;;23.22;100.00;101920.97;5094924;28;20119;-46
2023/08/22 09:23:27;;;;;;;5.80;2.50;;;;;;;23.56;100.00;101990.28;5095292;28;20051;-50
2023/08/22 09:25:53;;;;;;;5.45;2.08;;;;;;;23.22;100.00;101939.78;5093493;28;20096;-49
2023/08/22 09:28:18;;;;;;;4.53;2.40;;;;;;;23.13;100.00;101935.03;5093147;28;20432;-49
2023/08/22 09:30:50;;;;;;;4.95;2.10;;;;;;;23.11;100.00;101924.41;5090562;28;20044;-47
2023/08/22 09:33:16;;;;;;;7.22;1.88;;;;;;;23.36;100.00;101950.44;5092982;28;20367;-50
2023/08/22 09:35:42;;;;;;;6.13;2.35;;;;;;;23.35;100.00;101938.00;5091242;28;20031;-50
2023/08/22 09:38:10;;;;;;;5.95;2.20;;;;;;;23.63;100.00;101977.28;5075421;28;20032;-47
2023/08/22 09:40:36;;;;;;;4.72;2.25;;;;;;;24.07;100.00;102010.03;5076886;28;20039;-47
2023/08/22 09:43:02;;;;;;;10.30;3.72;;;;;;;23.90;100.00;101957.44;5094313;28;20036;-47
2023/08/22 09:45:31;;;;;;;7.38;2.78;;;;;;;24.51;100.00;102017.66;5093205;28;20119;-51
2023/08/22 09:47:59;;;;;;;8.18;2.42;;;;;;;24.71;100.00;102014.38;5094361;28;20040;-48
2023/08/22 09:50:30;;;;;;;5.50;2.30;;;;;;;24.58;100.00;101947.09;5093496;28;20024;-46
2023/08/22 09:52:56;;;;;;;8.40;2.58;;;;;;;24.99;100.00;102018.59;5094604;28;20050;-52
2023/08/22 09:55:21;;;;;;;7.50;2.17;;;;;;;24.48;100.00;101956.84;5092955;28;20578;-48
2023/08/22 09:57:48;;;;;;;8.13;2.92;;;;;;;24.63;100.00;102016.78;5076149;28;20040;-48
2023/08/22 10:00:14;;;;;;;6.45;2.30;;;;;;;24.44;100.00;102006.47;5093119;28;20074;-48
2023/08/22 10:02:40;;;;;;;7.03;2.70;;;;;;;24.24;100.00;101996.28;5091456;28;20072;-48
2023/08/22 10:05:06;;;;;;;5.82;2.05;;;;;;;24.18;100.00;102004.78;5092868;28;20077;-46
2023/08/22 10:07:32;;;;;;;9.82;2.75;;;;;;;24.16;100.00;102005.84;5094340;28;20028;-47
2023/08/22 10:09:57;;;;;;;6.35;2.33;;;;;;;24.02;100.00;101975.34;5090861;28;20043;-52
2023/08/22 10:12:23;;;;;;;4.25;1.95;;;;;;;24.34;100.00;102010.75;5090938;28;20052;-49
2023/08/22 10:14:56;;;;;;;4.45;1.63;;;;;;;24.32;100.00;101974.19;5090923;28;20042;-51
2023/08/22 10:17:25;;;;;;;11.68;2.10;;;;;;;24.68;100.00;102014.59;5090429;28;20036;-48
2023/08/22 10:19:51;;;;;;;6.95;2.42;;;;;;;24.74;100.00;102008.75;5090450;28;20434;-47
2023/08/22 10:22:16;;;;;;;4.50;2.38;;;;;;;24.54;100.00;101952.81;5073581;28;20081;-49
2023/08/22 10:24:42;;;;;;;8.73;2.10;;;;;;;24.89;100.00;102006.81;5091987;28;20032;-49
2023/08/22 10:27:10;;;;;;;7.18;2.60;;;;;;;24.72;100.00;102008.03;5090696;28;20036;-47
2023/08/22 10:29:37;;;;;;;7.30;2.53;;;;;;;24.52;100.00;101998.69;5090522;28;20074;-48
2023/08/22 10:32:03;;;;;;;7.97;2.42;;;;;;;24.67;100.00;102018.25;5090312;28;20036;-47
2023/08/22 10:34:34;;;;;;;4.10;2.25;;;;;;;24.35;100.00;102014.31;5091269;28;20102;-45
2023/08/22 10:37:00;;;;;;;7.45;2.45;;;;;;;23.84;100.00;101952.47;5089338;28;20039;-53
2023/08/22 10:39:37;;;;;;;9.10;3.08;;;;;;;24.00;100.00;102003.34;5091467;28;20040;-46
2023/08/22 10:42:02;;;;;;;5.85;2.13;;;;;;;23.65;100.00;101935.91;5090958;28;20486;-53
2023/08/22 10:44:30;;;;;;;6.57;2.60;;;;;;;24.13;100.00;102004.25;5091054;28;20050;-54
2023/08/22 10:47:00;;;;;;;6.80;2.35;;;;;;;23.99;100.00;101924.47;5090799;28;20039;-48
2023/08/22 10:49:29;;;;;;;6.87;2.57;;;;;;;24.08;100.00;101945.34;5091324;28;20051;-48
2023/08/22 10:52:08;;;;;;;5.88;2.17;;;;;;;24.19;100.00;102011.03;5089375;28;20020;-49
2023/08/22 10:55:00;;;;;;;8.02;2.30;;;;;;;24.10;100.00;102009.84;5081390;28;20106;-50
2023/08/22 10:57:30;;;;;;;7.03;1.98;;;;;;;23.88;100.00;101951.28;5069136;28;20432;-51
2023/08/22 10:59:58;;;;;;;5.10;1.95;;;;;;;24.04;100.00;101969.88;5070502;28;20028;-47
2023/08/22 11:02:24;;;;;;;5.32;1.75;;;;;;;24.08;100.00;101968.69;5086903;28;20044;-48
2023/08/22 11:04:50;;;;;;;4.22;1.83;;;;;;;24.51;100.00;102015.81;5084028;28;20031;-50
2023/08/22 11:07:15;;;;;;;3.63;1.60;;;;;;;24.19;100.00;101946.44;5084227;28;20480;-46